createdAt,value
2018-01-19T00:01:42.638Z,7.40
2018-01-19T00:04:10.186Z,7.40
2018-01-19T00:06:37.714Z,7.30
2018-01-19T00:09:05.274Z,7.30
2018-01-19T00:11:32.811Z,7.30
2018-01-19T00:14:00.331Z,7.30
2018-01-19T00:16:29.839Z,7.30
2018-01-19T00:18:58.122Z,7.40
2018-01-19T00:21:26.434Z,7.40
2018-01-19T00:23:53.959Z,7.30
2018-01-19T00:26:22.282Z,7.30
2018-01-19T00:28:50.954Z,7.30
2018-01-19T00:31:19.487Z,7.40
2018-01-19T00:33:47.040Z,7.40
2018-01-19T00:36:14.565Z,7.40
2018-01-19T00:38:42.116Z,7.40
2018-01-19T00:41:10.594Z,7.50
2018-01-19T00:43:38.143Z,7.50
2018-01-19T00:46:05.674Z,7.50
2018-01-19T00:48:33.229Z,7.50
2018-01-19T00:51:00.785Z,7.50
2018-01-19T00:53:28.309Z,7.50
2018-01-19T00:55:55.851Z,7.50
2018-01-19T00:58:23.376Z,7.50
2018-01-19T01:00:50.928Z,7.60
2018-01-19T01:03:19.222Z,7.70
2018-01-19T01:05:46.773Z,7.70
2018-01-19T01:08:14.282Z,7.70
2018-01-19T01:10:41.822Z,7.60
2018-01-19T01:13:09.369Z,7.60
2018-01-19T01:15:36.890Z,7.60
2018-01-19T01:18:05.214Z,7.60
2018-01-19T01:20:32.733Z,7.60
2018-01-19T01:23:00.278Z,7.60
2018-01-19T01:25:27.798Z,7.60
2018-01-19T01:27:56.261Z,7.60
2018-01-19T01:30:23.803Z,7.60
2018-01-19T01:32:51.330Z,7.60
2018-01-19T01:35:18.873Z,7.60
2018-01-19T01:37:46.398Z,7.60
2018-01-19T01:40:13.946Z,7.60
2018-01-19T01:42:41.464Z,7.60
2018-01-19T01:45:09.009Z,7.60
2018-01-19T01:47:37.486Z,7.60
2018-01-19T01:50:05.003Z,7.60
2018-01-19T01:52:32.546Z,7.50
2018-01-19T01:55:00.847Z,7.60
2018-01-19T01:57:28.390Z,7.60
2018-01-19T01:59:55.913Z,7.60
2018-01-19T02:02:25.398Z,7.60
2018-01-19T02:04:52.914Z,7.50
2018-01-19T02:07:20.463Z,7.60
2018-01-19T02:09:47.977Z,7.50
2018-01-19T02:12:15.522Z,7.50
2018-01-19T02:14:43.038Z,7.60
2018-01-19T02:17:10.592Z,7.50
2018-01-19T02:19:38.117Z,7.60
2018-01-19T02:22:06.448Z,7.50
2018-01-19T02:24:33.961Z,7.50
2018-01-19T02:27:01.518Z,7.50
2018-01-19T02:29:29.038Z,7.50
2018-01-19T02:31:56.577Z,7.50
2018-01-19T02:34:24.146Z,7.50
2018-01-19T02:36:51.699Z,7.50
2018-01-19T02:39:19.243Z,7.50
2018-01-19T02:41:47.530Z,7.40
2018-01-19T02:44:15.082Z,7.40
2018-01-19T02:46:43.595Z,7.40
2018-01-19T02:49:11.137Z,7.40
2018-01-19T02:51:38.666Z,7.40
2018-01-19T02:54:06.221Z,7.40
2018-01-19T02:56:34.510Z,7.40
2018-01-19T02:59:02.040Z,7.40
2018-01-19T03:01:30.538Z,7.50
2018-01-19T03:03:58.063Z,7.40
2018-01-19T03:06:25.614Z,7.40
2018-01-19T03:08:53.134Z,7.40
2018-01-19T03:11:20.691Z,7.30
2018-01-19T03:13:48.214Z,7.20
2018-01-19T03:16:15.741Z,7.10
2018-01-19T03:18:43.297Z,6.90
2018-01-19T03:21:10.833Z,6.80
2018-01-19T03:23:38.391Z,6.70
2018-01-19T03:26:05.912Z,6.70
2018-01-19T03:28:35.390Z,6.60
2018-01-19T03:31:03.860Z,6.60
2018-01-19T03:33:31.378Z,6.60
2018-01-19T03:35:59.917Z,6.50
2018-01-19T03:38:27.430Z,6.50
2018-01-19T03:40:54.989Z,6.50
2018-01-19T03:43:22.511Z,6.50
2018-01-19T03:45:50.071Z,6.50
2018-01-19T03:48:17.599Z,6.50
2018-01-19T03:50:45.122Z,6.50
2018-01-19T03:53:12.676Z,6.50
2018-01-19T03:55:41.167Z,6.40
2018-01-19T03:58:08.723Z,6.40
2018-01-19T04:00:36.263Z,6.40
2018-01-19T04:03:03.826Z,6.40
2018-01-19T04:05:31.361Z,6.30
2018-01-19T04:07:58.909Z,6.20
2018-01-19T04:10:26.468Z,6.10
2018-01-19T04:12:54.766Z,6.00
2018-01-19T04:15:22.317Z,6.00
2018-01-19T04:17:50.813Z,6.00
2018-01-19T04:20:19.136Z,5.90
2018-01-19T04:22:46.653Z,5.90
2018-01-19T04:25:14.959Z,5.90
2018-01-19T04:27:42.512Z,5.90
2018-01-19T04:30:10.053Z,5.90
2018-01-19T04:32:37.608Z,5.90
2018-01-19T04:35:06.826Z,5.90
2018-01-19T04:37:34.386Z,5.90
2018-01-19T04:40:01.915Z,5.90
2018-01-19T04:42:30.207Z,6.00
2018-01-19T04:44:57.755Z,5.90
2018-01-19T04:47:26.042Z,6.00
2018-01-19T04:49:53.662Z,6.00
2018-01-19T04:52:21.186Z,6.10
2018-01-19T04:54:48.734Z,6.10
2018-01-19T04:57:16.254Z,6.10
2018-01-19T04:59:44.574Z,6.10
2018-01-19T05:02:12.094Z,6.00
2018-01-19T05:04:40.378Z,6.10
2018-01-19T05:07:08.687Z,6.20
2018-01-19T05:09:36.210Z,6.20
2018-01-19T05:12:03.762Z,6.20
2018-01-19T05:14:32.063Z,6.10
2018-01-19T05:16:59.607Z,6.10
2018-01-19T05:19:27.121Z,6.00
2018-01-19T05:21:54.654Z,6.00
2018-01-19T05:24:22.200Z,6.00
2018-01-19T05:26:49.719Z,6.00
2018-01-19T05:29:17.282Z,5.90
2018-01-19T05:31:44.808Z,5.80
2018-01-19T05:34:12.351Z,5.90
2018-01-19T05:36:39.885Z,5.90
2018-01-19T05:39:07.437Z,5.90
2018-01-19T05:41:35.733Z,5.90
2018-01-19T05:44:03.253Z,5.90
2018-01-19T05:46:31.571Z,6.00
2018-01-19T05:48:59.123Z,5.90
2018-01-19T05:51:26.682Z,6.00
2018-01-19T05:53:54.199Z,6.00
2018-01-19T05:56:21.774Z,6.00
2018-01-19T05:58:49.302Z,6.10
2018-01-19T06:01:16.840Z,6.20
2018-01-19T06:03:44.398Z,6.20
2018-01-19T06:06:12.919Z,6.10
2018-01-19T06:08:40.475Z,6.10
2018-01-19T06:11:08.006Z,6.10
2018-01-19T06:13:35.554Z,6.10
2018-01-19T06:16:03.083Z,6.00
2018-01-19T06:18:30.610Z,6.00
2018-01-19T06:20:58.322Z,6.10
2018-01-19T06:23:25.853Z,6.00
2018-01-19T06:25:54.178Z,5.90
2018-01-19T06:28:21.690Z,5.90
2018-01-19T06:30:49.242Z,5.90
2018-01-19T06:33:17.539Z,5.70
2018-01-19T06:35:45.070Z,5.70
2018-01-19T06:38:12.626Z,5.70
2018-01-19T06:40:40.147Z,5.70
2018-01-19T06:43:07.690Z,5.70
2018-01-19T06:45:35.215Z,5.60
2018-01-19T06:48:03.524Z,5.60
2018-01-19T06:50:31.058Z,5.50
2018-01-19T06:52:58.587Z,5.60
2018-01-19T06:55:26.157Z,5.60
2018-01-19T06:57:53.680Z,5.60
2018-01-19T07:00:21.236Z,5.60
2018-01-19T07:02:48.754Z,5.50
2018-01-19T07:05:24.034Z,5.60
2018-01-19T07:08:02.027Z,5.70
2018-01-19T07:10:29.626Z,5.70
2018-01-19T07:12:57.179Z,5.70
2018-01-19T07:15:24.708Z,5.70
2018-01-19T07:17:52.256Z,5.80
2018-01-19T07:20:19.782Z,5.70
2018-01-19T07:22:47.331Z,5.60
2018-01-19T07:25:14.850Z,5.60
2018-01-19T07:27:42.412Z,5.60
2018-01-19T07:30:09.937Z,5.70
2018-01-19T07:32:38.418Z,5.70
2018-01-19T07:35:06.607Z,5.60
2018-01-19T07:37:34.125Z,5.60
2018-01-19T07:40:01.712Z,5.50
2018-01-19T07:42:29.240Z,5.50
2018-01-19T07:44:57.574Z,5.60
2018-01-19T07:47:25.099Z,5.60
2018-01-19T07:49:52.650Z,5.70
2018-01-19T07:52:20.176Z,5.70
2018-01-19T07:54:47.730Z,5.70
2018-01-19T07:57:15.246Z,5.60
2018-01-19T07:59:42.763Z,5.50
2018-01-19T08:04:44.115Z,5.50
2018-01-19T08:07:12.645Z,5.50
2018-01-19T08:09:40.165Z,5.50
2018-01-19T08:12:09.087Z,5.70
2018-01-19T08:14:36.624Z,5.70
2018-01-19T08:17:04.187Z,5.80
2018-01-19T08:19:31.718Z,5.80
2018-01-19T08:21:59.270Z,5.80
2018-01-19T08:24:27.748Z,5.80
2018-01-19T08:26:55.296Z,5.70
2018-01-19T08:29:22.822Z,5.70
2018-01-19T08:31:50.348Z,5.80
2018-01-19T08:34:17.899Z,5.80
2018-01-19T08:36:46.206Z,5.80
2018-01-19T08:39:13.815Z,5.70
2018-01-19T08:41:41.335Z,5.70
2018-01-19T08:44:08.881Z,5.70
2018-01-19T08:46:36.407Z,5.70
2018-01-19T08:49:03.972Z,5.60
2018-01-19T08:51:32.270Z,5.80
2018-01-19T08:53:59.799Z,5.80
2018-01-19T08:56:27.376Z,5.90
2018-01-19T08:58:54.894Z,5.90
2018-01-19T09:01:22.435Z,6.00
2018-01-19T09:03:49.946Z,6.00
2018-01-19T09:06:18.252Z,6.00
2018-01-19T09:08:45.770Z,6.00
2018-01-19T09:11:13.326Z,6.00
2018-01-19T09:13:40.861Z,6.00
2018-01-19T09:16:08.411Z,5.90
2018-01-19T09:18:35.935Z,5.90
2018-01-19T09:21:04.494Z,6.10
2018-01-19T09:23:32.781Z,6.20
2018-01-19T09:26:01.066Z,6.20
2018-01-19T09:28:29.382Z,6.10
2018-01-19T09:30:56.911Z,6.10
2018-01-19T09:33:24.467Z,6.10
2018-01-19T09:35:52.989Z,6.10
2018-01-19T09:38:20.538Z,6.10
2018-01-19T09:40:48.111Z,6.10
2018-01-19T09:43:15.663Z,6.00
2018-01-19T09:45:43.187Z,6.10
2018-01-19T09:48:10.722Z,6.10
2018-01-19T09:50:39.043Z,6.10
2018-01-19T09:53:06.554Z,6.10
2018-01-19T09:55:34.865Z,6.40
2018-01-19T09:58:02.382Z,6.40
2018-01-19T10:00:29.938Z,6.50
2018-01-19T10:02:57.458Z,6.60
2018-01-19T10:05:25.986Z,6.60
2018-01-19T10:07:54.270Z,7.10
2018-01-19T10:10:22.591Z,7.10
2018-01-19T10:12:50.111Z,7.10
2018-01-19T10:15:18.413Z,7.10
2018-01-19T10:17:46.946Z,7.10
2018-01-19T10:20:14.474Z,6.90
2018-01-19T10:22:42.019Z,6.90
2018-01-19T10:25:09.534Z,7.30
2018-01-19T10:27:37.078Z,7.40
2018-01-19T10:30:04.603Z,7.50
2018-01-19T10:32:32.153Z,7.70
2018-01-19T10:35:00.663Z,8.00
2018-01-19T10:37:28.175Z,8.40
2018-01-19T10:39:55.729Z,8.40
2018-01-19T10:42:23.250Z,8.30
2018-01-19T10:44:50.802Z,8.20
2018-01-19T10:47:18.351Z,7.80
2018-01-19T10:49:45.894Z,7.80
2018-01-19T10:52:13.415Z,8.10
2018-01-19T10:54:42.915Z,8.20
2018-01-19T10:57:10.434Z,8.00
2018-01-19T10:59:39.943Z,7.90
2018-01-19T11:02:07.475Z,8.10
2018-01-19T11:04:35.031Z,8.10
2018-01-19T11:07:02.578Z,8.00
2018-01-19T11:09:30.107Z,7.90
2018-01-19T11:11:58.426Z,8.20
2018-01-19T11:14:26.908Z,8.20
2018-01-19T11:16:54.464Z,8.30
2018-01-19T11:19:21.996Z,8.20
2018-01-19T11:21:49.552Z,8.20
2018-01-19T11:24:17.067Z,8.00
2018-01-19T11:26:44.607Z,7.60
2018-01-19T11:29:12.131Z,7.40
2018-01-19T11:31:39.653Z,7.50
2018-01-19T11:34:07.208Z,7.40
2018-01-19T11:36:34.731Z,7.50
2018-01-19T11:39:02.278Z,7.60
2018-01-19T11:41:29.798Z,7.70
2018-01-19T11:43:57.347Z,7.70
2018-01-19T11:46:24.873Z,7.60
2018-01-19T11:48:52.433Z,7.70
2018-01-19T11:51:19.976Z,7.70
2018-01-19T11:53:47.493Z,7.60
2018-01-19T11:56:15.817Z,7.70
2018-01-19T11:58:44.306Z,7.70
2018-01-19T12:01:12.827Z,7.50
2018-01-19T12:03:40.346Z,7.50
2018-01-19T12:06:08.906Z,7.70
2018-01-19T12:08:36.427Z,7.70
2018-01-19T12:11:03.975Z,7.60
2018-01-19T12:13:31.493Z,7.80
2018-01-19T12:15:59.052Z,7.90
2018-01-19T12:18:26.589Z,7.60
2018-01-19T12:20:55.111Z,7.50
2018-01-19T12:23:22.691Z,7.60
2018-01-19T12:25:50.223Z,7.70
2018-01-19T12:28:19.706Z,7.60
2018-01-19T12:30:47.222Z,7.50
2018-01-19T12:33:14.775Z,7.60
2018-01-19T12:35:42.297Z,7.40
2018-01-19T12:38:09.850Z,7.30
2018-01-19T12:40:37.364Z,7.40
2018-01-19T12:43:05.646Z,7.50
2018-01-19T12:45:33.992Z,7.40
2018-01-19T12:48:01.510Z,7.40
2018-01-19T12:50:29.058Z,7.40
2018-01-19T12:52:56.574Z,7.50
2018-01-19T12:55:26.758Z,7.70
2018-01-19T12:57:54.311Z,7.70
2018-01-19T13:00:21.860Z,7.80
2018-01-19T13:02:49.383Z,7.70
2018-01-19T13:05:17.858Z,7.80
2018-01-19T13:07:45.383Z,7.60
2018-01-19T13:10:12.932Z,7.40
2018-01-19T13:12:40.464Z,7.50
2018-01-19T13:15:07.983Z,7.50
2018-01-19T13:17:35.534Z,7.50
2018-01-19T13:20:04.014Z,7.50
2018-01-19T13:22:31.574Z,7.50
2018-01-19T13:24:59.110Z,7.50
2018-01-19T13:27:26.667Z,7.50
2018-01-19T13:29:54.180Z,7.20
2018-01-19T13:32:21.722Z,7.10
2018-01-19T13:34:49.241Z,7.10
2018-01-19T13:37:16.794Z,7.30
2018-01-19T13:39:44.309Z,7.40
2018-01-19T13:42:12.599Z,7.20
2018-01-19T13:44:40.156Z,7.20
2018-01-19T13:47:08.443Z,7.30
2018-01-19T13:49:37.936Z,7.30
2018-01-19T13:52:06.227Z,7.30
2018-01-19T13:54:33.786Z,7.30
2018-01-19T13:57:01.315Z,7.20
2018-01-19T13:59:28.861Z,7.10
2018-01-19T14:01:56.379Z,7.00
2018-01-19T14:04:23.932Z,6.90
2018-01-19T14:06:51.457Z,6.80
2018-01-19T14:09:20.711Z,6.60
2018-01-19T14:11:48.266Z,6.60
2018-01-19T14:14:15.774Z,6.70
2018-01-19T14:16:43.331Z,6.90
2018-01-19T14:19:12.572Z,7.10
2018-01-19T14:21:41.099Z,7.00
2018-01-19T14:24:08.671Z,7.00
2018-01-19T14:26:36.264Z,7.00
2018-01-19T14:29:04.752Z,6.90
2018-01-19T14:31:32.274Z,6.80
2018-01-19T14:33:59.827Z,6.70
2018-01-19T14:36:28.131Z,6.80
2018-01-19T14:38:55.698Z,6.80
2018-01-19T14:41:23.218Z,6.80
2018-01-19T14:43:51.532Z,7.00
2018-01-19T14:46:19.068Z,7.00
2018-01-19T14:48:46.599Z,7.00
2018-01-19T14:51:14.922Z,6.90
2018-01-19T14:53:42.434Z,6.90
2018-01-19T14:56:09.981Z,6.90
2018-01-19T14:58:37.509Z,6.90
2018-01-19T15:01:05.061Z,6.90
2018-01-19T15:03:32.583Z,6.70
2018-01-19T15:06:00.126Z,6.60
2018-01-19T15:08:28.662Z,6.60
2018-01-19T15:10:56.203Z,6.50
2018-01-19T15:13:23.780Z,6.40
2018-01-19T15:15:52.339Z,6.40
2018-01-19T15:18:19.886Z,6.30
2018-01-19T15:20:48.186Z,6.00
2018-01-19T15:23:15.726Z,6.00
2018-01-19T15:25:44.023Z,5.90
2018-01-19T15:28:11.538Z,5.90
2018-01-19T15:30:39.847Z,5.80
2018-01-19T15:33:07.363Z,5.80
2018-01-19T15:35:36.882Z,5.70
2018-01-19T15:38:05.171Z,5.70
2018-01-19T15:40:32.724Z,5.70
2018-01-19T15:43:00.235Z,5.50
2018-01-19T15:45:29.774Z,5.40
2018-01-19T15:47:58.263Z,5.40
2018-01-19T15:50:25.814Z,5.30
2018-01-19T15:52:53.338Z,5.20
2018-01-19T15:55:20.889Z,5.30
2018-01-19T15:57:48.403Z,5.30
2018-01-19T16:00:16.693Z,5.30
2018-01-19T16:02:45.010Z,5.30
2018-01-19T16:05:12.531Z,5.20
2018-01-19T16:07:42.040Z,5.30
2018-01-19T16:10:09.565Z,5.30
2018-01-19T16:12:37.143Z,5.30
2018-01-19T16:15:04.665Z,5.30
2018-01-19T16:17:32.802Z,5.40
2018-01-19T16:20:00.323Z,5.40
2018-01-19T16:22:28.609Z,5.40
2018-01-19T16:24:56.922Z,5.40
2018-01-19T16:27:25.409Z,5.40
2018-01-19T16:29:52.961Z,5.40
2018-01-19T16:32:20.478Z,5.40
2018-01-19T16:34:48.027Z,5.40
2018-01-19T16:37:15.554Z,5.40
2018-01-19T16:39:43.093Z,5.40
2018-01-19T16:42:11.570Z,5.40
2018-01-19T16:44:39.103Z,5.40
2018-01-19T16:47:07.414Z,5.50
2018-01-19T16:49:34.934Z,5.50
2018-01-19T16:52:02.494Z,5.50
2018-01-19T16:54:30.029Z,5.50
2018-01-19T16:56:57.574Z,5.50
2018-01-19T16:59:26.059Z,5.40
2018-01-19T17:01:53.617Z,5.40
2018-01-19T17:04:21.167Z,5.50
2018-01-19T17:06:48.700Z,5.50
2018-01-19T17:09:16.250Z,5.60
2018-01-19T17:11:43.778Z,5.50
2018-01-19T17:14:11.315Z,5.50
2018-01-19T17:16:38.852Z,5.40
2018-01-19T17:19:06.407Z,5.10
2018-01-19T17:21:33.946Z,4.90
2018-01-19T17:24:01.490Z,4.90
2018-01-19T17:26:29.021Z,5.00
2018-01-19T17:28:57.370Z,4.90
2018-01-19T17:31:24.891Z,4.80
2018-01-19T17:33:52.426Z,4.90
2018-01-19T17:36:19.983Z,4.90
2018-01-19T17:38:47.503Z,4.90
2018-01-19T17:41:15.051Z,5.00
2018-01-19T17:43:42.576Z,5.00
2018-01-19T17:46:11.179Z,4.90
2018-01-19T17:48:38.678Z,5.10
2018-01-19T17:51:06.226Z,5.20
2018-01-19T17:53:33.745Z,5.00
2018-01-19T17:56:01.305Z,5.00
2018-01-19T17:58:28.829Z,5.00
2018-01-19T18:00:57.124Z,5.00
2018-01-19T18:03:24.678Z,5.00
2018-01-19T18:05:52.204Z,5.00
2018-01-19T18:08:19.772Z,4.90
2018-01-19T18:10:48.094Z,5.00
2018-01-19T18:13:15.650Z,4.90
2018-01-19T18:15:43.181Z,5.00
2018-01-19T18:18:11.487Z,4.90
2018-01-19T18:20:39.030Z,4.90
2018-01-19T18:23:06.565Z,4.60
2018-01-19T18:25:35.866Z,4.30
2018-01-19T18:28:03.580Z,4.30
2018-01-19T18:30:32.147Z,4.20
2018-01-19T18:32:59.716Z,4.20
2018-01-19T18:35:27.271Z,4.30
2018-01-19T18:37:54.794Z,4.40
2018-01-19T18:40:23.091Z,4.30
2018-01-19T18:42:50.966Z,4.30
2018-01-19T18:45:18.490Z,4.20
2018-01-19T18:47:46.075Z,4.20
2018-01-19T18:50:13.634Z,4.20
2018-01-19T18:52:41.174Z,4.10
2018-01-19T18:55:09.462Z,4.10
2018-01-19T18:57:37.015Z,4.00
2018-01-19T19:00:07.645Z,4.00
2018-01-19T19:02:35.168Z,4.00
2018-01-19T19:05:04.702Z,4.00
2018-01-19T19:07:33.737Z,4.00
2018-01-19T19:10:01.294Z,4.00
2018-01-19T19:12:28.811Z,4.00
2018-01-19T19:14:56.354Z,4.10
2018-01-19T19:17:23.887Z,4.10
2018-01-19T19:19:51.410Z,4.10
2018-01-19T19:22:18.964Z,4.10
2018-01-19T19:24:46.562Z,4.10
2018-01-19T19:27:14.130Z,4.10
2018-01-19T19:29:41.649Z,4.10
2018-01-19T19:32:09.245Z,4.20
2018-01-19T19:34:36.778Z,4.20
2018-01-19T19:37:04.325Z,4.20
2018-01-19T19:39:31.862Z,4.20
2018-01-19T19:42:00.195Z,4.20
2018-01-19T19:44:27.747Z,4.20
2018-01-19T19:46:55.272Z,4.10
2018-01-19T19:49:24.771Z,4.10
2018-01-19T19:51:53.074Z,4.10
2018-01-19T19:54:20.619Z,4.10
2018-01-19T19:56:48.134Z,4.10
2018-01-19T19:59:16.418Z,4.10
2018-01-19T20:01:43.983Z,4.10
2018-01-19T20:04:11.501Z,4.10
2018-01-19T20:06:39.058Z,4.10
2018-01-19T20:09:06.598Z,4.10
2018-01-19T20:11:35.086Z,4.10
2018-01-19T20:14:02.624Z,4.00
2018-01-19T20:16:30.217Z,3.90
2018-01-19T20:18:57.776Z,3.90
2018-01-19T20:21:26.259Z,3.90
2018-01-19T20:23:53.796Z,3.90
2018-01-19T20:26:21.346Z,4.00
2018-01-19T20:28:48.865Z,4.00
2018-01-19T20:31:16.418Z,4.10
2018-01-19T20:33:43.941Z,4.10
2018-01-19T20:36:11.526Z,4.20
2018-01-19T20:38:39.061Z,4.20
2018-01-19T20:41:06.592Z,4.20
2018-01-19T20:43:34.147Z,4.30
2018-01-19T20:46:02.059Z,4.30
2018-01-19T20:48:29.630Z,4.30
2018-01-19T20:50:57.147Z,4.30
2018-01-19T20:53:24.698Z,4.50
2018-01-19T20:55:52.786Z,4.40
2018-01-19T20:58:20.336Z,4.40
2018-01-19T21:00:47.850Z,4.30
2018-01-19T21:03:15.362Z,4.40
2018-01-19T21:05:42.906Z,4.30
2018-01-19T21:08:10.424Z,4.20
2018-01-19T21:10:37.985Z,4.00
2018-01-19T21:13:06.470Z,3.90
2018-01-19T21:15:34.782Z,3.80
2018-01-19T21:18:02.325Z,3.80
2018-01-19T21:20:29.858Z,3.80
2018-01-19T21:22:57.399Z,3.80
2018-01-19T21:25:24.919Z,3.70
2018-01-19T21:27:52.467Z,3.70
2018-01-19T21:30:20.023Z,3.70
2018-01-19T21:32:47.562Z,3.80
2018-01-19T21:35:15.882Z,3.80
2018-01-19T21:37:43.403Z,3.80
2018-01-19T21:40:11.731Z,4.00
2018-01-19T21:42:39.274Z,4.00
2018-01-19T21:45:06.888Z,4.00
2018-01-19T21:47:34.407Z,4.00
2018-01-19T21:50:01.961Z,4.00
2018-01-19T21:52:29.510Z,4.10
2018-01-19T21:54:57.063Z,4.10
2018-01-19T21:57:24.624Z,4.10
2018-01-19T21:59:52.144Z,4.10
2018-01-19T22:02:19.691Z,4.30
2018-01-19T22:04:47.212Z,4.30
2018-01-19T22:07:14.767Z,4.30
2018-01-19T22:09:42.291Z,4.30
2018-01-19T22:12:10.609Z,4.40
2018-01-19T22:14:38.125Z,4.30
2018-01-19T22:17:05.650Z,4.40
2018-01-19T22:19:33.205Z,4.50
2018-01-19T22:22:00.789Z,4.50
2018-01-19T22:24:29.095Z,4.50
2018-01-19T22:26:56.623Z,4.50
2018-01-19T22:29:24.174Z,4.50
2018-01-19T22:31:51.705Z,4.40
2018-01-19T22:34:19.235Z,4.50
2018-01-19T22:36:46.792Z,4.40
2018-01-19T22:39:14.323Z,4.40
2018-01-19T22:41:42.626Z,4.40
2018-01-19T22:44:10.143Z,4.40
2018-01-19T22:46:37.712Z,4.40
2018-01-19T22:49:05.995Z,4.30
2018-01-19T22:51:34.466Z,4.20
2018-01-19T22:54:02.751Z,4.10
2018-01-19T22:56:31.278Z,4.10
2018-01-19T22:58:58.830Z,4.20
2018-01-19T23:01:26.350Z,4.20
2018-01-19T23:03:53.906Z,4.20
2018-01-19T23:06:22.192Z,4.10
2018-01-19T23:08:50.497Z,4.10
2018-01-19T23:11:19.011Z,4.10
2018-01-19T23:13:46.537Z,4.10
2018-01-19T23:16:14.078Z,4.20
2018-01-19T23:18:41.751Z,4.10
2018-01-19T23:21:09.298Z,4.10
2018-01-19T23:23:36.826Z,4.10
2018-01-19T23:26:05.150Z,4.10
2018-01-19T23:28:32.664Z,4.10
2018-01-19T23:31:01.175Z,4.00
2018-01-19T23:33:28.700Z,4.00
2018-01-19T23:35:56.629Z,3.90
2018-01-19T23:38:24.263Z,4.00
2018-01-19T23:40:51.798Z,4.00
2018-01-19T23:43:21.075Z,4.00
2018-01-19T23:45:48.607Z,4.00
2018-01-19T23:48:16.167Z,4.10
2018-01-19T23:50:43.684Z,4.20
2018-01-19T23:53:11.966Z,4.10
2018-01-19T23:55:39.512Z,4.10
2018-01-19T23:58:07.044Z,4.10
